Lehigh Valley, Pennsylvania
Current Conditions -  °F | °C
As of 12:26 AM on Thursday 25 Dec 2014 (Local Time) from KABE Reporting Station
Overcast Overcast  
Wind Chill: 61°   Ceiling: 1500
Heat Index: 61°   Visibility: 10mi
Dew Point: 57°   Wind: 12mph
Humidity: 88%   Direction: 220°SW
Pressure: 29.49"   Gusts: NA
Location:  40.65°N, 75.44°W
Report Text: KABE 250526Z 22010KT 10SM SCT009 OVC015 16/14 A2949 RMK AO2 RAE03 P0001
Loading
Personal Weather Stations






























Interactive Weather Map New forecast layout! Learn more

10-Day Weather Forecast

Advertisements
Track Severe Weather on mobile